createdAt,value
2018-07-31T00:00:10.562Z,0
2018-07-31T00:01:26.436Z,0
2018-07-31T00:02:42.354Z,0
2018-07-31T00:03:58.260Z,0
2018-07-31T00:05:14.156Z,0
2018-07-31T00:06:30.049Z,0
2018-07-31T00:07:45.939Z,0
2018-07-31T00:09:01.827Z,0
2018-07-31T00:10:17.707Z,0
2018-07-31T00:11:33.556Z,0
2018-07-31T00:12:49.415Z,0
2018-07-31T00:14:05.299Z,0
2018-07-31T00:15:21.161Z,0
2018-07-31T00:16:37.038Z,0
2018-07-31T00:17:52.913Z,0
2018-07-31T00:19:08.835Z,0
2018-07-31T00:20:24.717Z,0
2018-07-31T00:21:40.668Z,0
2018-07-31T00:22:56.592Z,1
2018-07-31T00:24:12.452Z,0
2018-07-31T00:25:28.327Z,0
2018-07-31T00:26:44.202Z,1
2018-07-31T00:28:00.055Z,0
2018-07-31T00:29:15.967Z,0
2018-07-31T00:30:32.068Z,0
2018-07-31T00:31:47.950Z,0
2018-07-31T00:33:03.827Z,0
2018-07-31T00:34:19.741Z,0
2018-07-31T00:35:35.630Z,1
2018-07-31T00:36:51.515Z,0
2018-07-31T00:38:07.365Z,0
2018-07-31T00:39:23.233Z,0
2018-07-31T00:40:39.118Z,0
2018-07-31T00:41:54.982Z,0
2018-07-31T00:43:10.865Z,0
2018-07-31T00:44:26.767Z,0
2018-07-31T00:45:42.656Z,0
2018-07-31T00:46:58.548Z,1
2018-07-31T00:49:55.348Z,0
2018-07-31T00:51:11.298Z,0
2018-07-31T00:54:09.017Z,0
2018-07-31T00:55:24.876Z,0
2018-07-31T00:56:40.778Z,0
2018-07-31T00:57:56.662Z,0
2018-07-31T00:59:12.523Z,0
2018-07-31T01:00:28.393Z,1
2018-07-31T01:01:44.252Z,0
2018-07-31T01:03:00.191Z,0
2018-07-31T01:04:16.202Z,0
2018-07-31T01:05:32.112Z,0
2018-07-31T01:06:47.981Z,0
2018-07-31T01:08:03.903Z,1
2018-07-31T01:09:19.764Z,0
2018-07-31T01:10:35.675Z,0
2018-07-31T01:11:51.539Z,1
2018-07-31T01:13:07.457Z,1
2018-07-31T01:14:23.298Z,1
2018-07-31T01:15:39.172Z,0
2018-07-31T01:16:55.050Z,0
2018-07-31T01:18:10.949Z,0
2018-07-31T01:19:26.834Z,1
2018-07-31T01:20:42.726Z,0
2018-07-31T01:21:58.605Z,0
2018-07-31T01:23:14.510Z,0
2018-07-31T01:24:30.443Z,0
2018-07-31T01:25:46.320Z,1
2018-07-31T01:27:02.167Z,0
2018-07-31T01:28:18.005Z,0
2018-07-31T01:29:33.917Z,0
2018-07-31T01:30:49.746Z,0
2018-07-31T01:32:05.606Z,0
2018-07-31T01:33:21.623Z,1
2018-07-31T01:34:37.508Z,0
2018-07-31T01:35:53.360Z,0
2018-07-31T01:37:09.225Z,1
2018-07-31T01:38:25.076Z,0
2018-07-31T01:39:40.963Z,1
2018-07-31T01:40:56.807Z,0
2018-07-31T01:42:12.669Z,1
2018-07-31T01:43:28.561Z,0
2018-07-31T01:44:44.452Z,0
2018-07-31T01:46:00.428Z,0
2018-07-31T01:47:16.266Z,0
2018-07-31T01:48:32.143Z,0
2018-07-31T01:49:48.020Z,0
2018-07-31T01:51:03.922Z,0
2018-07-31T01:52:19.809Z,0
2018-07-31T01:53:35.679Z,1
2018-07-31T01:54:51.578Z,0
2018-07-31T01:56:07.483Z,0
2018-07-31T01:57:23.347Z,0
2018-07-31T01:58:39.242Z,0
2018-07-31T01:59:55.141Z,0
2018-07-31T02:01:11.000Z,0
2018-07-31T02:02:26.893Z,0
2018-07-31T02:03:42.774Z,0
2018-07-31T02:07:55.506Z,0
2018-07-31T02:09:11.397Z,0
2018-07-31T02:10:27.308Z,0
2018-07-31T02:11:43.207Z,1
2018-07-31T02:12:59.075Z,0
2018-07-31T02:14:14.942Z,0
2018-07-31T02:15:30.818Z,0
2018-07-31T02:16:46.723Z,1
2018-07-31T02:18:02.653Z,0
2018-07-31T02:19:18.575Z,0
2018-07-31T02:20:34.487Z,0
2018-07-31T02:21:50.367Z,0
2018-07-31T02:23:06.261Z,1
2018-07-31T02:24:22.141Z,1
2018-07-31T02:25:38.080Z,1
2018-07-31T02:26:53.953Z,0
2018-07-31T02:28:09.993Z,0
2018-07-31T02:29:25.799Z,0
2018-07-31T02:30:41.793Z,0
2018-07-31T02:31:57.667Z,0
2018-07-31T02:33:13.550Z,0
2018-07-31T02:34:29.430Z,0
2018-07-31T02:35:45.374Z,1
2018-07-31T02:37:01.320Z,0
2018-07-31T02:38:17.259Z,0
2018-07-31T02:39:33.117Z,0
2018-07-31T02:40:48.985Z,0
2018-07-31T02:42:04.862Z,0
2018-07-31T02:43:21.745Z,0
2018-07-31T02:44:37.637Z,0
2018-07-31T02:45:53.568Z,0
2018-07-31T02:47:09.437Z,0
2018-07-31T02:48:25.383Z,0
2018-07-31T02:49:41.261Z,0
2018-07-31T02:50:57.172Z,0
2018-07-31T02:52:13.039Z,0
2018-07-31T02:53:28.918Z,0
2018-07-31T02:54:44.795Z,0
2018-07-31T02:56:00.718Z,0
2018-07-31T02:57:16.613Z,0
2018-07-31T02:58:32.620Z,0
2018-07-31T02:59:48.551Z,0
2018-07-31T03:01:04.435Z,0
2018-07-31T03:02:20.488Z,0
2018-07-31T03:03:36.526Z,0
2018-07-31T03:04:52.412Z,0
2018-07-31T03:06:08.288Z,1
2018-07-31T03:07:24.163Z,1
2018-07-31T03:08:40.132Z,0
2018-07-31T03:09:56.008Z,0
2018-07-31T03:11:11.928Z,0
2018-07-31T03:12:27.794Z,1
2018-07-31T03:13:43.676Z,1
2018-07-31T03:14:59.775Z,1
2018-07-31T03:16:15.837Z,1
2018-07-31T03:17:31.718Z,1
2018-07-31T03:18:47.600Z,0
2018-07-31T03:20:03.564Z,1
2018-07-31T03:21:19.560Z,1
2018-07-31T03:22:35.460Z,1
2018-07-31T03:23:51.451Z,1
2018-07-31T03:25:07.462Z,2
2018-07-31T03:26:23.393Z,2
2018-07-31T03:27:39.320Z,2
2018-07-31T03:28:55.392Z,2
2018-07-31T03:30:11.309Z,3
2018-07-31T03:31:27.194Z,3
2018-07-31T03:32:43.104Z,3
2018-07-31T03:33:58.966Z,4
2018-07-31T03:35:14.869Z,5
2018-07-31T03:36:30.905Z,6
2018-07-31T03:37:46.904Z,8
2018-07-31T03:39:03.782Z,9
2018-07-31T03:40:20.717Z,12
2018-07-31T03:41:36.632Z,14
2018-07-31T03:42:52.660Z,17
2018-07-31T03:44:08.546Z,21
2018-07-31T03:45:24.422Z,26
2018-07-31T03:46:40.468Z,30
2018-07-31T03:47:56.500Z,36
2018-07-31T03:49:12.375Z,42
2018-07-31T03:50:28.290Z,50
2018-07-31T03:51:44.229Z,59
2018-07-31T03:53:00.114Z,69
2018-07-31T03:54:16.018Z,80
2018-07-31T03:55:31.942Z,91
2018-07-31T03:56:47.894Z,104
2018-07-31T03:58:04.868Z,118
2018-07-31T03:59:20.831Z,133
2018-07-31T04:00:36.812Z,149
2018-07-31T04:01:52.719Z,166
2018-07-31T04:03:08.713Z,185
2018-07-31T04:04:24.720Z,205
2018-07-31T04:05:40.596Z,225
2018-07-31T04:06:56.517Z,246
2018-07-31T04:08:12.547Z,268
2018-07-31T04:09:28.569Z,291
2018-07-31T04:10:44.490Z,315
2018-07-31T04:12:00.369Z,339
2018-07-31T04:13:16.287Z,364
2018-07-31T04:14:32.212Z,389
2018-07-31T04:15:48.116Z,415
2018-07-31T04:17:04.129Z,441
2018-07-31T04:18:20.012Z,468
2018-07-31T04:19:35.978Z,495
2018-07-31T04:20:51.872Z,522
2018-07-31T04:22:07.766Z,549
2018-07-31T04:23:23.665Z,575
2018-07-31T04:24:39.650Z,603
2018-07-31T04:25:55.759Z,629
2018-07-31T04:27:11.654Z,656
2018-07-31T04:28:27.681Z,683
2018-07-31T04:29:43.575Z,709
2018-07-31T04:30:59.601Z,735
2018-07-31T04:32:15.578Z,761
2018-07-31T04:33:31.468Z,786
2018-07-31T04:34:47.427Z,812
2018-07-31T04:36:03.383Z,836
2018-07-31T04:37:19.273Z,861
2018-07-31T04:38:35.305Z,883
2018-07-31T04:39:51.242Z,907
2018-07-31T04:41:07.189Z,930
2018-07-31T04:42:23.146Z,953
2018-07-31T04:43:39.082Z,975
2018-07-31T04:44:54.997Z,998
2018-07-31T04:46:11.065Z,1021
2018-07-31T04:47:27.132Z,1039
2018-07-31T04:48:43.089Z,1060
2018-07-31T04:49:58.983Z,1083
2018-07-31T04:51:14.895Z,1102
2018-07-31T04:52:30.893Z,1122
2018-07-31T04:53:47.944Z,1142
2018-07-31T04:55:03.931Z,1161
2018-07-31T04:56:19.886Z,1181
2018-07-31T04:57:35.906Z,1199
2018-07-31T04:58:51.978Z,1216
2018-07-31T05:00:07.926Z,1234
2018-07-31T05:01:23.825Z,1252
2018-07-31T05:02:39.879Z,1274
2018-07-31T05:03:55.939Z,1286
2018-07-31T05:05:12.042Z,1302
2018-07-31T05:06:28.076Z,1318
2018-07-31T05:07:43.990Z,1334
2018-07-31T05:09:00.013Z,1349
2018-07-31T05:10:16.081Z,1365
2018-07-31T05:11:32.046Z,1380
2018-07-31T05:12:48.006Z,1394
2018-07-31T05:14:03.972Z,1408
2018-07-31T05:15:19.937Z,1423
2018-07-31T05:16:35.916Z,1439
2018-07-31T05:17:51.829Z,1449
2018-07-31T05:19:07.809Z,1466
2018-07-31T05:20:23.765Z,1479
2018-07-31T05:21:39.724Z,1491
2018-07-31T05:22:55.733Z,1507
2018-07-31T05:24:11.698Z,1521
2018-07-31T05:25:27.687Z,1534
2018-07-31T05:26:43.615Z,1548
2018-07-31T05:29:41.089Z,1578
2018-07-31T05:30:57.187Z,1592
2018-07-31T05:32:13.107Z,1612
2018-07-31T05:33:29.020Z,1617
2018-07-31T05:34:44.963Z,1628
2018-07-31T05:36:00.877Z,1641
2018-07-31T05:37:16.957Z,1654
2018-07-31T05:38:32.843Z,1663
2018-07-31T05:39:48.827Z,1677
2018-07-31T05:41:04.731Z,1690
2018-07-31T05:42:20.641Z,1702
2018-07-31T05:43:36.641Z,1712
2018-07-31T05:44:52.543Z,1724
2018-07-31T05:46:08.480Z,1735
2018-07-31T05:47:24.489Z,1744
2018-07-31T05:48:40.437Z,1759
2018-07-31T05:49:56.351Z,1767
2018-07-31T05:51:12.280Z,1782
2018-07-31T05:52:28.193Z,1792
2018-07-31T05:53:44.115Z,1804
2018-07-31T05:55:00.002Z,1816
2018-07-31T05:56:16.019Z,1829
2018-07-31T05:57:31.977Z,1832
2018-07-31T05:58:47.874Z,1848
2018-07-31T06:00:03.899Z,1855
2018-07-31T06:01:19.862Z,1869
2018-07-31T06:02:35.832Z,1884
2018-07-31T06:03:51.736Z,1892
2018-07-31T06:05:07.666Z,1900
2018-07-31T06:06:23.560Z,1913
2018-07-31T06:07:39.450Z,1922
2018-07-31T06:08:55.357Z,1942
2018-07-31T06:10:11.280Z,1926
2018-07-31T06:11:27.310Z,2007
2018-07-31T06:12:43.354Z,1970
2018-07-31T06:13:59.360Z,1980
2018-07-31T06:15:15.278Z,1995
2018-07-31T06:16:31.160Z,2013
2018-07-31T06:17:47.075Z,2001
2018-07-31T06:19:03.007Z,2026
2018-07-31T06:20:18.958Z,2037
2018-07-31T06:21:35.060Z,2052
2018-07-31T06:22:51.030Z,2064
2018-07-31T06:24:06.917Z,2074
2018-07-31T06:25:22.900Z,2085
2018-07-31T06:26:38.918Z,2099
2018-07-31T06:27:54.934Z,2111
2018-07-31T06:29:10.866Z,2123
2018-07-31T06:30:26.758Z,2136
2018-07-31T06:31:42.757Z,2148
2018-07-31T06:32:58.677Z,2163
2018-07-31T06:34:14.739Z,2174
2018-07-31T06:35:30.644Z,2186
2018-07-31T06:36:46.570Z,2202
2018-07-31T06:38:02.494Z,2215
2018-07-31T06:39:18.372Z,2228
2018-07-31T06:40:34.403Z,2240
2018-07-31T06:41:50.271Z,2245
2018-07-31T06:43:06.204Z,2265
2018-07-31T06:44:22.212Z,2299
2018-07-31T06:45:38.133Z,2293
2018-07-31T06:46:54.064Z,2311
2018-07-31T06:48:10.000Z,2324
2018-07-31T06:49:26.112Z,2333
2018-07-31T06:50:41.981Z,2350
2018-07-31T06:51:57.940Z,2355
2018-07-31T06:53:13.998Z,2367
2018-07-31T06:54:29.934Z,2380
2018-07-31T06:55:45.897Z,2387
2018-07-31T06:57:01.808Z,2405
2018-07-31T06:58:17.829Z,2428
2018-07-31T06:59:33.752Z,2450
2018-07-31T07:00:49.691Z,2479
2018-07-31T07:02:05.866Z,2506
2018-07-31T07:03:21.827Z,2542
2018-07-31T07:04:37.703Z,2579
2018-07-31T07:05:53.724Z,2617
2018-07-31T07:07:09.821Z,2655
2018-07-31T07:08:25.805Z,2710
2018-07-31T07:09:41.720Z,2754
2018-07-31T07:12:38.190Z,2811
2018-07-31T07:13:54.204Z,2921
2018-07-31T07:15:10.109Z,2957
2018-07-31T07:16:26.076Z,3036
2018-07-31T07:17:42.150Z,3033
2018-07-31T07:18:58.216Z,3065
2018-07-31T07:20:14.197Z,3086
2018-07-31T07:21:30.105Z,3121
2018-07-31T07:22:46.104Z,3138
2018-07-31T07:24:01.998Z,3171
2018-07-31T07:25:17.899Z,3171
2018-07-31T07:26:33.952Z,3194
2018-07-31T07:27:49.953Z,3195
2018-07-31T07:29:05.854Z,3220
2018-07-31T07:30:21.832Z,3231
2018-07-31T07:31:37.803Z,3243
2018-07-31T07:32:53.900Z,3263
2018-07-31T07:34:09.829Z,3277
2018-07-31T07:35:25.794Z,3292
2018-07-31T07:36:41.786Z,3321
2018-07-31T07:37:57.712Z,3342
2018-07-31T07:39:13.632Z,3357
2018-07-31T07:40:29.548Z,3367
2018-07-31T07:41:45.667Z,3387
2018-07-31T07:43:01.634Z,3404
2018-07-31T07:44:17.570Z,3430
2018-07-31T07:45:33.718Z,3438
2018-07-31T07:46:49.607Z,3461
2018-07-31T07:48:08.351Z,3472
2018-07-31T07:49:24.379Z,3497
2018-07-31T07:50:40.310Z,3517
2018-07-31T07:51:56.238Z,3540
2018-07-31T07:53:12.156Z,3551
2018-07-31T07:54:28.111Z,3562
2018-07-31T07:55:44.103Z,3585
2018-07-31T07:57:00.055Z,3603
2018-07-31T07:58:16.108Z,3603
2018-07-31T07:59:32.052Z,3631
2018-07-31T08:00:48.000Z,3644
2018-07-31T08:02:03.948Z,3657
2018-07-31T08:03:19.871Z,3683
2018-07-31T08:04:35.941Z,3696
2018-07-31T08:05:51.917Z,3721
2018-07-31T08:07:07.858Z,3733
2018-07-31T08:08:23.846Z,3746
2018-07-31T08:09:39.843Z,3755
2018-07-31T08:10:55.766Z,3769
2018-07-31T08:12:11.726Z,3776
2018-07-31T08:13:27.720Z,3803
2018-07-31T08:14:43.662Z,3814
2018-07-31T08:16:00.140Z,3817
2018-07-31T08:17:16.281Z,3826
2018-07-31T08:18:32.318Z,3836
2018-07-31T08:19:48.659Z,3858
2018-07-31T08:22:45.802Z,3890
2018-07-31T08:29:55.622Z,3945
2018-07-31T08:31:11.642Z,3972
2018-07-31T08:32:27.586Z,4005
2018-07-31T08:33:43.549Z,3988
2018-07-31T08:34:59.834Z,4011
2018-07-31T08:36:16.297Z,4032
2018-07-31T08:37:32.548Z,4041
2018-07-31T08:38:48.903Z,4060
2018-07-31T08:40:05.156Z,4075
2018-07-31T08:41:21.220Z,4083
2018-07-31T08:42:37.073Z,4098
2018-07-31T08:43:52.997Z,4117
2018-07-31T08:45:09.180Z,4110
2018-07-31T08:46:25.540Z,4132
2018-07-31T08:49:22.692Z,4126
2018-07-31T08:50:39.080Z,4157
2018-07-31T08:51:55.049Z,4201
2018-07-31T08:53:11.093Z,4193
2018-07-31T08:54:27.159Z,4186
2018-07-31T08:55:43.238Z,4232
2018-07-31T08:56:59.232Z,4219
2018-07-31T08:58:15.142Z,4237
2018-07-31T08:59:31.220Z,4242
2018-07-31T09:00:47.214Z,4254
2018-07-31T09:02:03.173Z,4275
2018-07-31T09:03:19.069Z,4261
2018-07-31T09:04:35.060Z,4261
2018-07-31T09:05:51.038Z,4290
2018-07-31T09:07:06.967Z,4291
2018-07-31T09:10:03.705Z,4300
2018-07-31T09:11:20.337Z,4322
2018-07-31T09:12:36.324Z,4328
2018-07-31T09:13:52.785Z,4340
2018-07-31T09:15:09.286Z,4355
2018-07-31T09:16:25.527Z,4359
2018-07-31T09:17:41.861Z,4371
2018-07-31T09:18:58.054Z,4367
2018-07-31T09:20:14.175Z,4381
2018-07-31T09:21:30.457Z,4373
2018-07-31T09:24:27.196Z,4401
2018-07-31T09:25:43.161Z,4426
2018-07-31T09:26:59.574Z,4425
2018-07-31T09:28:16.138Z,4440
2018-07-31T09:29:32.526Z,4453
2018-07-31T09:30:49.045Z,4446
2018-07-31T09:32:05.133Z,4486
2018-07-31T09:33:21.252Z,4470
2018-07-31T09:34:37.260Z,4489
2018-07-31T09:35:53.264Z,4502
2018-07-31T09:37:09.291Z,4489
2018-07-31T09:38:25.270Z,4493
2018-07-31T09:39:41.277Z,4514
2018-07-31T09:40:57.312Z,4529
2018-07-31T09:42:13.384Z,4555
2018-07-31T09:43:29.297Z,4571
2018-07-31T09:44:45.229Z,4578
2018-07-31T09:46:01.637Z,4611
2018-07-31T09:47:17.953Z,4616
2018-07-31T09:48:33.934Z,4623
2018-07-31T09:49:49.920Z,4620
2018-07-31T09:51:05.998Z,4640
2018-07-31T09:54:02.858Z,4640
2018-07-31T09:55:18.856Z,4650
2018-07-31T09:56:34.856Z,4662
2018-07-31T09:57:50.946Z,4695
2018-07-31T09:59:06.986Z,4692
2018-07-31T10:00:22.946Z,4693
2018-07-31T10:01:38.874Z,4733
2018-07-31T10:02:54.890Z,4696
2018-07-31T10:04:10.997Z,4720
2018-07-31T10:05:26.946Z,4691
2018-07-31T10:06:42.993Z,4748
2018-07-31T10:07:58.924Z,4732
2018-07-31T10:09:15.033Z,4759
2018-07-31T10:10:30.976Z,4774
2018-07-31T10:11:46.940Z,4789
2018-07-31T10:13:02.895Z,4791
2018-07-31T10:14:18.870Z,4791
2018-07-31T10:15:34.781Z,4802
2018-07-31T10:16:50.910Z,4795
2018-07-31T10:18:07.440Z,4789
2018-07-31T10:19:24.185Z,4795
2018-07-31T10:22:20.926Z,4777
2018-07-31T10:23:36.985Z,4820
2018-07-31T10:24:52.931Z,4837
2018-07-31T10:26:08.906Z,4848
2018-07-31T10:27:24.939Z,4826
2018-07-31T10:28:40.990Z,4810
2018-07-31T10:29:56.934Z,4843
2018-07-31T10:31:12.882Z,4853
2018-07-31T10:32:28.859Z,4857
2018-07-31T10:33:44.863Z,4838
2018-07-31T10:35:00.928Z,4865
2018-07-31T10:36:16.901Z,4865
2018-07-31T10:37:32.911Z,4875
2018-07-31T10:38:48.816Z,4848
2018-07-31T10:40:04.833Z,4874
2018-07-31T10:41:20.831Z,4864
2018-07-31T10:42:36.853Z,4871
2018-07-31T10:43:52.918Z,4848
2018-07-31T10:45:08.867Z,4863
2018-07-31T10:46:24.788Z,4879
2018-07-31T10:47:40.838Z,4884
2018-07-31T10:48:56.841Z,4895
2018-07-31T10:50:12.826Z,4891
2018-07-31T10:51:28.815Z,4910
2018-07-31T10:52:44.723Z,4917
2018-07-31T10:54:00.740Z,4919
2018-07-31T10:55:16.672Z,4901
2018-07-31T10:56:32.624Z,4916
2018-07-31T10:57:48.725Z,4936
2018-07-31T10:59:04.828Z,4919
2018-07-31T11:00:20.893Z,4912
2018-07-31T11:01:36.793Z,4920
2018-07-31T11:02:53.847Z,4930
2018-07-31T11:04:09.904Z,4923
2018-07-31T11:05:26.169Z,4922
2018-07-31T11:06:42.130Z,4917
2018-07-31T11:07:58.050Z,4917
2018-07-31T11:09:14.027Z,4920
2018-07-31T11:10:30.037Z,4920
2018-07-31T11:11:45.973Z,4915
2018-07-31T11:13:01.974Z,4924
2018-07-31T11:14:17.885Z,4928
2018-07-31T11:15:34.013Z,4916
2018-07-31T11:16:49.963Z,4952
2018-07-31T11:18:05.884Z,4928
2018-07-31T11:19:21.842Z,4938
2018-07-31T11:20:37.946Z,4887
2018-07-31T11:21:54.087Z,4938
2018-07-31T11:24:50.710Z,4897
2018-07-31T11:26:05.767Z,4942
2018-07-31T11:27:21.740Z,4938
2018-07-31T11:28:37.687Z,4928
2018-07-31T11:29:53.647Z,4922
2018-07-31T11:31:09.615Z,4929
2018-07-31T11:32:25.652Z,4924
2018-07-31T11:33:41.724Z,4916
2018-07-31T11:34:57.671Z,4879
2018-07-31T11:36:13.750Z,4912
2018-07-31T11:37:29.729Z,4923
2018-07-31T11:38:45.801Z,4923
2018-07-31T11:40:01.810Z,4913
2018-07-31T11:41:17.740Z,4892
2018-07-31T11:42:33.687Z,4855
2018-07-31T11:43:49.832Z,4901
2018-07-31T11:45:05.835Z,4869
2018-07-31T11:46:21.730Z,4870
2018-07-31T11:47:37.705Z,4847
2018-07-31T11:48:53.707Z,4863
2018-07-31T11:50:09.714Z,4859
2018-07-31T11:51:25.648Z,4874
2018-07-31T11:52:41.629Z,4865
2018-07-31T11:53:57.593Z,4871
2018-07-31T11:55:13.522Z,4854
2018-07-31T11:56:29.607Z,4857
2018-07-31T11:57:45.592Z,4836
2018-07-31T11:59:01.607Z,4836
2018-07-31T12:00:17.611Z,4863
2018-07-31T12:01:33.576Z,4859
2018-07-31T12:02:49.670Z,4858
2018-07-31T12:04:05.609Z,4865
2018-07-31T12:05:21.537Z,4840
2018-07-31T12:06:37.440Z,4825
2018-07-31T12:07:53.471Z,4840
2018-07-31T12:09:09.479Z,4853
2018-07-31T12:10:25.431Z,4852
2018-07-31T12:11:41.387Z,4853
2018-07-31T12:12:57.348Z,4864
2018-07-31T12:14:13.298Z,4884
2018-07-31T12:15:29.243Z,4891
2018-07-31T12:16:45.275Z,4880
2018-07-31T12:18:01.250Z,4903
2018-07-31T12:19:17.446Z,4921
2018-07-31T12:20:34.216Z,4912
2018-07-31T12:21:50.973Z,4942
2018-07-31T12:29:25.949Z,4975
2018-07-31T12:30:42.462Z,4999
2018-07-31T12:31:58.781Z,5009
2018-07-31T12:33:15.073Z,5026
2018-07-31T12:34:31.878Z,5013
2018-07-31T12:35:48.119Z,5016
2018-07-31T12:38:44.675Z,5029
2018-07-31T12:40:00.780Z,5040
2018-07-31T12:41:16.736Z,5019
2018-07-31T12:42:32.693Z,5019
2018-07-31T12:43:48.654Z,5015
2018-07-31T12:45:04.701Z,5062
2018-07-31T12:46:20.628Z,5063
2018-07-31T12:47:36.755Z,5053
2018-07-31T12:48:52.804Z,5089
2018-07-31T12:50:08.953Z,5091
2018-07-31T12:51:24.963Z,5079
2018-07-31T12:52:40.918Z,5057
2018-07-31T12:53:56.892Z,5080
2018-07-31T12:55:12.930Z,5085
2018-07-31T12:56:28.883Z,5088
2018-07-31T12:57:44.833Z,5078
2018-07-31T12:59:00.921Z,5079
2018-07-31T13:00:16.864Z,5089
2018-07-31T13:01:32.914Z,5062
2018-07-31T13:02:48.970Z,5030
2018-07-31T13:04:04.945Z,5037
2018-07-31T13:05:21.044Z,5043
2018-07-31T13:08:17.681Z,5061
2018-07-31T13:09:33.686Z,5035
2018-07-31T13:10:49.620Z,5025
2018-07-31T13:12:05.559Z,5032
2018-07-31T13:13:21.562Z,5018
2018-07-31T13:14:37.545Z,5026
2018-07-31T13:15:53.731Z,5001
2018-07-31T13:17:09.685Z,4996
2018-07-31T13:18:25.598Z,4985
2018-07-31T13:19:41.516Z,4989
2018-07-31T13:20:57.459Z,4984
2018-07-31T13:22:13.442Z,4984
2018-07-31T13:23:29.846Z,4970
2018-07-31T13:29:23.595Z,5018
2018-07-31T13:30:39.690Z,5001
2018-07-31T13:31:55.693Z,5009
2018-07-31T13:33:11.659Z,5016
2018-07-31T13:34:27.614Z,5018
2018-07-31T13:35:43.572Z,5004
2018-07-31T13:36:59.528Z,5001
2018-07-31T13:38:15.426Z,5015
2018-07-31T13:39:31.416Z,5013
2018-07-31T13:40:47.446Z,5012
2018-07-31T13:42:03.498Z,4993
2018-07-31T13:43:19.466Z,5001
2018-07-31T13:44:35.455Z,4983
2018-07-31T13:45:51.438Z,4984
2018-07-31T13:47:07.484Z,4968
2018-07-31T13:48:23.440Z,4909
2018-07-31T13:49:39.629Z,4973
2018-07-31T13:50:55.670Z,4951
2018-07-31T13:52:11.681Z,4979
2018-07-31T13:53:27.725Z,4931
2018-07-31T13:54:43.693Z,4970
2018-07-31T13:55:59.600Z,4977
2018-07-31T13:57:15.551Z,4979
2018-07-31T13:58:31.631Z,4989
2018-07-31T13:59:47.638Z,5001
2018-07-31T14:01:03.621Z,5012
2018-07-31T14:02:19.542Z,5000
2018-07-31T14:03:35.501Z,5005
2018-07-31T14:04:51.439Z,5002
2018-07-31T14:06:07.392Z,5005
2018-07-31T14:07:23.548Z,5004
2018-07-31T14:08:39.510Z,4994
2018-07-31T14:09:55.507Z,4986
2018-07-31T14:11:11.478Z,5010
2018-07-31T14:12:27.451Z,5003
2018-07-31T14:13:43.383Z,5003
2018-07-31T14:14:59.294Z,4989
2018-07-31T14:16:15.270Z,5007
2018-07-31T14:17:31.372Z,5016
2018-07-31T14:18:47.293Z,4997
2018-07-31T14:20:03.283Z,5011
2018-07-31T14:21:19.368Z,4992
2018-07-31T14:22:35.339Z,4951
2018-07-31T14:23:51.313Z,4986
2018-07-31T14:25:07.226Z,4977
2018-07-31T14:26:23.247Z,4991
2018-07-31T14:27:39.169Z,4965
2018-07-31T14:28:55.195Z,4976
2018-07-31T14:30:11.231Z,4956
2018-07-31T14:31:28.205Z,4977
2018-07-31T14:32:44.248Z,4955
2018-07-31T14:34:00.191Z,4945
2018-07-31T14:35:16.226Z,4958
2018-07-31T14:36:32.250Z,4935
2018-07-31T14:37:48.182Z,4917
2018-07-31T14:39:04.211Z,4904
2018-07-31T14:40:20.227Z,4253
2018-07-31T14:41:36.241Z,4263
2018-07-31T14:42:52.410Z,3872
2018-07-31T14:44:08.330Z,5741
2018-07-31T14:45:24.284Z,5764
2018-07-31T14:46:40.277Z,5805
2018-07-31T14:47:56.205Z,5738
2018-07-31T14:49:12.271Z,5765
2018-07-31T14:50:28.260Z,5738
2018-07-31T14:51:44.357Z,5740
2018-07-31T14:53:00.468Z,5703
2018-07-31T14:54:16.579Z,5731
2018-07-31T14:55:32.703Z,5753
2018-07-31T14:56:49.793Z,5750
2018-07-31T14:58:05.973Z,5768
2018-07-31T14:59:21.890Z,5759
2018-07-31T15:00:37.935Z,5719
2018-07-31T15:01:54.082Z,5682
2018-07-31T15:03:10.088Z,5641
2018-07-31T15:04:26.739Z,5631
2018-07-31T15:05:42.722Z,5674
2018-07-31T15:06:58.718Z,5684
2018-07-31T15:08:14.652Z,5691
2018-07-31T15:09:30.631Z,5689
2018-07-31T15:10:46.601Z,5693
2018-07-31T15:12:02.526Z,5678
2018-07-31T15:13:18.464Z,5674
2018-07-31T15:14:34.570Z,5680
2018-07-31T15:17:31.289Z,5689
2018-07-31T15:18:47.484Z,5597
2018-07-31T15:20:04.183Z,5566
2018-07-31T15:21:20.328Z,5542
2018-07-31T15:22:36.738Z,5513
2018-07-31T15:23:51.969Z,5481
2018-07-31T15:28:05.182Z,5331
2018-07-31T15:29:21.702Z,5312
2018-07-31T15:30:38.306Z,5274
2018-07-31T15:31:54.565Z,5202
2018-07-31T15:33:10.972Z,5218
2018-07-31T15:34:27.029Z,5188
2018-07-31T15:35:43.052Z,5197
2018-07-31T15:36:59.139Z,5209
2018-07-31T15:38:15.152Z,5178
2018-07-31T15:39:31.169Z,5163
2018-07-31T15:40:47.207Z,5079
2018-07-31T15:42:03.105Z,5056
2018-07-31T15:43:19.068Z,5024
2018-07-31T15:44:35.030Z,5037
2018-07-31T15:45:50.992Z,4998
2018-07-31T15:47:07.151Z,4971
2018-07-31T15:48:23.364Z,4940
2018-07-31T15:49:39.779Z,4897
2018-07-31T15:50:56.028Z,4875
2018-07-31T15:55:09.074Z,4752
2018-07-31T15:56:25.097Z,4705
2018-07-31T15:57:41.071Z,4680
2018-07-31T15:58:57.035Z,4656
2018-07-31T16:01:53.874Z,4600
2018-07-31T16:03:10.065Z,4577
2018-07-31T16:04:26.297Z,4552
2018-07-31T16:05:42.398Z,4509
2018-07-31T16:06:58.479Z,4490
2018-07-31T16:08:14.493Z,4456
2018-07-31T16:09:30.423Z,4434
2018-07-31T16:12:27.218Z,4403
2018-07-31T16:13:43.177Z,4357
2018-07-31T16:15:00.318Z,4326
2018-07-31T16:16:16.389Z,4306
2018-07-31T16:19:12.851Z,4249
2018-07-31T16:20:28.944Z,4233
2018-07-31T16:21:45.124Z,4206
2018-07-31T16:23:01.383Z,4182
2018-07-31T16:24:17.231Z,4151
2018-07-31T16:25:33.347Z,4115
2018-07-31T16:26:49.358Z,4049
2018-07-31T16:28:08.364Z,4033
2018-07-31T16:29:24.422Z,4000
2018-07-31T16:30:40.526Z,3971
2018-07-31T16:31:56.640Z,3948
2018-07-31T16:33:12.728Z,3904
2018-07-31T16:34:28.729Z,3875
2018-07-31T16:35:44.735Z,3846
2018-07-31T16:37:00.843Z,3815
2018-07-31T16:38:16.924Z,3782
2018-07-31T16:39:32.889Z,913
2018-07-31T16:40:48.869Z,745
2018-07-31T16:41:12.104Z,811
2018-07-31T16:41:28.525Z,743
2018-07-31T16:42:44.631Z,1522
2018-07-31T16:44:00.680Z,1515
2018-07-31T16:45:16.698Z,1505
2018-07-31T16:46:32.644Z,1488
2018-07-31T16:47:48.757Z,1470
2018-07-31T16:49:04.748Z,1461
2018-07-31T16:50:20.782Z,1439
2018-07-31T16:51:36.694Z,1434
2018-07-31T16:52:53.665Z,1423
2018-07-31T16:54:09.635Z,1413
2018-07-31T16:55:25.610Z,1397
2018-07-31T16:56:41.583Z,1379
2018-07-31T16:57:57.507Z,1372
2018-07-31T16:59:13.722Z,1358
2018-07-31T17:00:29.643Z,1340
2018-07-31T17:01:45.697Z,1329
2018-07-31T17:03:01.815Z,1312
2018-07-31T17:04:17.791Z,1291
2018-07-31T17:05:33.839Z,1282
2018-07-31T17:06:49.854Z,1268
2018-07-31T17:08:05.831Z,1254
2018-07-31T17:09:21.834Z,1242
2018-07-31T17:10:37.866Z,1232
2018-07-31T17:11:53.810Z,1221
2018-07-31T17:13:09.861Z,1203
2018-07-31T17:14:25.850Z,1186
2018-07-31T17:15:41.961Z,1174
2018-07-31T17:16:58.002Z,1161
2018-07-31T17:18:13.933Z,1149
2018-07-31T17:19:30.016Z,1135
2018-07-31T17:20:46.131Z,1120
2018-07-31T17:22:02.187Z,1109
2018-07-31T17:23:18.190Z,1094
2018-07-31T17:24:34.108Z,1079
2018-07-31T17:25:50.042Z,1066
2018-07-31T17:27:06.024Z,1054
2018-07-31T17:28:22.945Z,1039
2018-07-31T17:29:38.886Z,1021
2018-07-31T17:30:54.836Z,1008
2018-07-31T17:32:10.759Z,994
2018-07-31T17:33:26.704Z,978
2018-07-31T17:34:42.668Z,967
2018-07-31T17:35:58.935Z,953
2018-07-31T17:37:14.976Z,938
2018-07-31T17:38:31.057Z,922
2018-07-31T17:39:47.016Z,905
2018-07-31T17:41:02.986Z,887
2018-07-31T17:42:19.034Z,875
2018-07-31T17:43:35.039Z,862
2018-07-31T17:44:51.042Z,849
2018-07-31T17:46:06.987Z,836
2018-07-31T17:47:23.100Z,821
2018-07-31T17:48:39.136Z,806
2018-07-31T17:49:55.122Z,788
2018-07-31T17:51:11.185Z,775
2018-07-31T17:52:27.196Z,761
2018-07-31T17:53:43.191Z,746
2018-07-31T17:54:59.119Z,731
2018-07-31T17:56:15.100Z,715
2018-07-31T17:57:31.061Z,699
2018-07-31T17:58:46.988Z,682
2018-07-31T18:00:03.000Z,656
2018-07-31T18:01:18.987Z,627
2018-07-31T18:02:35.022Z,599
2018-07-31T18:03:51.055Z,578
2018-07-31T18:05:07.062Z,559
2018-07-31T18:06:23.008Z,540
2018-07-31T18:07:38.989Z,524
2018-07-31T18:08:55.067Z,506